createdAt,value
2022-12-04T00:00:33.815Z,53.10
2022-12-04T00:03:21.223Z,50.83
2022-12-04T00:05:48.126Z,49.33
2022-12-04T00:08:15.465Z,52.60
2022-12-04T00:10:43.935Z,51.87
2022-12-04T00:13:11.696Z,51.43
2022-12-04T00:15:43.134Z,50.70
2022-12-04T00:18:10.365Z,49.53
2022-12-04T00:20:40.358Z,49.93
2022-12-04T00:23:07.602Z,51.13
2022-12-04T00:25:40.758Z,52.03
2022-12-04T00:28:09.062Z,50.67
2022-12-04T00:30:40.246Z,50.63
2022-12-04T00:33:07.431Z,50.63
2022-12-04T00:35:34.293Z,51.50
2022-12-04T00:38:01.620Z,51.13
2022-12-04T00:40:28.673Z,51.47
2022-12-04T00:42:55.972Z,49.70
2022-12-04T00:45:23.007Z,51.70
2022-12-04T00:47:50.154Z,49.90
2022-12-04T00:50:17.110Z,50.23
2022-12-04T00:52:44.322Z,49.60
2022-12-04T00:55:11.441Z,49.13
2022-12-04T00:57:38.686Z,50.23
2022-12-04T01:00:06.947Z,50.53
2022-12-04T01:02:34.276Z,51.43
2022-12-04T01:05:02.029Z,49.07
2022-12-04T01:07:29.286Z,48.13
2022-12-04T01:09:56.890Z,50.67
2022-12-04T01:12:24.307Z,51.77
2022-12-04T01:14:51.314Z,50.87
2022-12-04T01:17:18.736Z,47.07
2022-12-04T01:19:45.676Z,50.40
2022-12-04T01:22:12.929Z,50.27
2022-12-04T01:24:40.027Z,51.43
2022-12-04T01:27:07.153Z,49.90
2022-12-04T01:29:34.167Z,52.00
2022-12-04T01:32:01.494Z,50.10
2022-12-04T01:34:28.542Z,49.73
2022-12-04T01:36:55.787Z,49.23
2022-12-04T01:39:22.753Z,49.67
2022-12-04T01:41:50.111Z,49.87
2022-12-04T01:44:26.078Z,48.73
2022-12-04T01:47:01.000Z,49.07
2022-12-04T01:49:36.886Z,46.20
2022-12-04T01:52:19.196Z,48.07
2022-12-04T01:54:54.331Z,45.93
2022-12-04T01:57:24.900Z,47.57
2022-12-04T02:00:01.861Z,48.47
2022-12-04T02:02:37.345Z,48.07
2022-12-04T02:05:07.511Z,46.07
2022-12-04T02:07:36.010Z,49.03
2022-12-04T02:10:06.473Z,47.83
2022-12-04T02:13:14.269Z,45.40
2022-12-04T02:15:50.282Z,47.57
2022-12-04T02:18:28.883Z,48.17
2022-12-04T02:21:23.177Z,47.87
2022-12-04T02:23:56.431Z,46.33
2022-12-04T02:26:38.881Z,49.37
2022-12-04T02:29:24.474Z,47.43
2022-12-04T02:31:55.453Z,48.07
2022-12-04T02:34:41.765Z,44.97
2022-12-04T02:37:17.346Z,51.43
2022-12-04T02:39:55.193Z,48.17
2022-12-04T02:42:30.189Z,48.53
2022-12-04T02:45:01.871Z,49.43
2022-12-04T02:47:30.544Z,47.60
2022-12-04T02:50:01.618Z,49.40
2022-12-04T02:52:35.235Z,50.03
2022-12-04T02:55:11.491Z,50.50
2022-12-04T02:57:43.251Z,49.23
2022-12-04T03:00:11.225Z,51.10
2022-12-04T03:02:46.642Z,51.33
2022-12-04T03:05:18.550Z,54.13
2022-12-04T03:07:59.776Z,53.10
2022-12-04T03:10:38.706Z,53.17
2022-12-04T03:13:16.028Z,57.17
2022-12-04T03:15:52.495Z,52.87
2022-12-04T03:18:44.496Z,54.83
2022-12-04T03:21:16.390Z,51.67
2022-12-04T03:23:49.303Z,56.13
2022-12-04T03:26:40.617Z,53.17
2022-12-04T03:29:22.369Z,55.63
2022-12-04T03:32:16.113Z,53.73
2022-12-04T03:34:51.255Z,54.53
2022-12-04T03:37:24.492Z,57.97
2022-12-04T03:40:06.371Z,56.77
2022-12-04T03:42:58.355Z,56.07
2022-12-04T03:45:30.504Z,56.07
2022-12-04T03:48:07.483Z,58.07
2022-12-04T03:50:34.355Z,55.63
2022-12-04T03:53:20.818Z,54.63
2022-12-04T03:55:47.664Z,53.80
2022-12-04T03:58:22.058Z,55.87
2022-12-04T04:00:52.705Z,54.97
2022-12-04T04:03:28.513Z,52.60
2022-12-04T04:06:06.817Z,53.20
2022-12-04T04:08:37.665Z,53.73
2022-12-04T04:11:07.633Z,54.63
2022-12-04T04:13:59.634Z,53.00
2022-12-04T04:16:47.305Z,50.90
2022-12-04T04:19:44.586Z,50.13
2022-12-04T04:22:30.716Z,50.20
2022-12-04T04:25:10.114Z,50.07
2022-12-04T04:27:37.041Z,52.47
2022-12-04T04:30:06.562Z,51.77
2022-12-04T04:32:49.948Z,49.67
2022-12-04T04:35:49.331Z,49.43
2022-12-04T04:38:37.858Z,50.77
2022-12-04T04:41:28.902Z,52.17
2022-12-04T04:44:25.235Z,49.17
2022-12-04T04:46:58.552Z,48.47
2022-12-04T04:49:29.562Z,47.30
2022-12-04T04:51:58.135Z,50.77
2022-12-04T04:54:26.904Z,49.87
2022-12-04T04:56:54.030Z,50.00
2022-12-04T04:59:20.907Z,47.07
2022-12-04T05:01:48.336Z,49.10
2022-12-04T05:04:15.593Z,49.63
2022-12-04T05:06:42.850Z,50.60
2022-12-04T05:09:09.718Z,50.80
2022-12-04T05:11:36.912Z,48.23
2022-12-04T05:14:05.934Z,50.10
2022-12-04T05:16:33.323Z,48.87
2022-12-04T05:19:18.624Z,47.90
2022-12-04T05:21:45.873Z,48.90
2022-12-04T05:24:12.707Z,44.33
2022-12-04T05:26:40.070Z,46.13
2022-12-04T05:29:07.053Z,45.87
2022-12-04T05:31:34.323Z,43.40
2022-12-04T05:34:01.245Z,45.30
2022-12-04T05:36:28.502Z,45.33
2022-12-04T05:38:55.343Z,43.87
2022-12-04T05:41:23.048Z,44.50
2022-12-04T05:43:49.955Z,44.00
2022-12-04T05:46:17.159Z,43.60
2022-12-04T05:48:44.148Z,42.30
2022-12-04T05:51:11.803Z,42.23
2022-12-04T05:53:38.830Z,41.37
2022-12-04T05:56:07.563Z,43.90
2022-12-04T05:58:36.790Z,39.70
2022-12-04T06:01:18.681Z,40.27
2022-12-04T06:03:45.834Z,40.10
2022-12-04T06:06:21.969Z,43.60
2022-12-04T06:08:51.636Z,42.00
2022-12-04T06:11:24.740Z,44.33
2022-12-04T06:13:52.408Z,41.73
2022-12-04T06:16:25.382Z,41.93
2022-12-04T06:18:55.107Z,40.20
2022-12-04T06:21:24.068Z,45.03
2022-12-04T06:23:52.220Z,43.10
2022-12-04T06:26:19.788Z,42.53
2022-12-04T06:28:47.542Z,40.73
2022-12-04T06:31:19.097Z,42.33
2022-12-04T06:33:46.512Z,44.53
2022-12-04T06:36:16.932Z,45.90
2022-12-04T06:38:44.328Z,43.33
2022-12-04T06:41:14.279Z,43.57
2022-12-04T06:43:41.627Z,41.53
2022-12-04T06:46:12.320Z,42.33
2022-12-04T06:48:39.554Z,42.37
2022-12-04T06:51:12.921Z,43.37
2022-12-04T06:53:40.306Z,43.10
2022-12-04T06:56:10.326Z,42.37
2022-12-04T06:58:37.696Z,42.43
2022-12-04T07:01:10.237Z,41.40
2022-12-04T07:03:38.135Z,43.57
2022-12-04T07:06:13.265Z,43.80
2022-12-04T07:08:40.275Z,46.80
2022-12-04T07:11:07.689Z,44.77
2022-12-04T07:13:34.998Z,45.83
2022-12-04T07:16:04.360Z,42.03
2022-12-04T07:18:32.638Z,43.50
2022-12-04T07:21:00.215Z,41.00
2022-12-04T07:23:27.324Z,44.83
2022-12-04T07:25:54.518Z,44.63
2022-12-04T07:28:21.545Z,44.93
2022-12-04T07:30:48.728Z,45.40
2022-12-04T07:33:15.599Z,43.57
2022-12-04T07:35:42.740Z,45.00
2022-12-04T07:38:09.615Z,46.30
2022-12-04T07:40:38.031Z,39.40
2022-12-04T07:43:05.080Z,41.13
2022-12-04T07:45:32.312Z,41.87
2022-12-04T07:47:59.268Z,42.83
2022-12-04T07:50:26.573Z,42.23
2022-12-04T07:52:53.787Z,42.03
2022-12-04T07:55:23.297Z,42.07
2022-12-04T07:57:50.594Z,41.63
2022-12-04T08:00:18.237Z,42.23
2022-12-04T08:02:45.147Z,41.47
2022-12-04T08:05:12.238Z,42.40
2022-12-04T08:07:39.146Z,42.10
2022-12-04T08:10:07.030Z,43.30
2022-12-04T08:12:33.993Z,40.17
2022-12-04T08:15:01.473Z,36.20
2022-12-04T08:17:28.628Z,36.80
2022-12-04T08:19:56.029Z,37.57
2022-12-04T08:22:25.255Z,38.93
2022-12-04T08:24:52.754Z,38.50
2022-12-04T08:27:19.693Z,37.80
2022-12-04T08:29:46.828Z,37.27
2022-12-04T08:32:13.800Z,37.80
2022-12-04T08:34:40.951Z,37.70
2022-12-04T08:37:07.800Z,36.97
2022-12-04T08:39:35.149Z,37.90
2022-12-04T08:42:02.012Z,36.97
2022-12-04T08:44:29.129Z,36.10
2022-12-04T08:46:56.067Z,35.73
2022-12-04T08:49:23.189Z,36.50
2022-12-04T08:51:50.391Z,36.00
2022-12-04T08:54:17.541Z,36.63
2022-12-04T08:56:44.623Z,35.10
2022-12-04T08:59:13.371Z,37.47
2022-12-04T09:01:40.406Z,37.57
2022-12-04T09:04:07.685Z,37.07
2022-12-04T09:06:34.866Z,37.77
2022-12-04T09:09:02.224Z,36.40
2022-12-04T09:11:30.549Z,36.20
2022-12-04T09:13:57.777Z,36.00
2022-12-04T09:16:26.154Z,35.27
2022-12-04T09:18:54.281Z,34.90
2022-12-04T09:21:23.626Z,35.53
2022-12-04T09:23:51.576Z,35.27
2022-12-04T09:26:21.684Z,35.33
2022-12-04T09:28:50.014Z,35.30
2022-12-04T09:31:17.647Z,33.47
2022-12-04T09:33:44.977Z,33.13
2022-12-04T09:36:16.238Z,34.80
2022-12-04T09:38:45.726Z,35.73
2022-12-04T09:41:46.779Z,35.03
2022-12-04T09:44:40.313Z,32.03
2022-12-04T09:47:21.390Z,32.77
2022-12-04T09:50:24.146Z,33.93
2022-12-04T09:53:06.254Z,32.77
2022-12-04T09:55:39.026Z,35.97
2022-12-04T09:58:10.731Z,33.57
2022-12-04T10:00:42.651Z,32.83
2022-12-04T10:03:17.302Z,39.13
2022-12-04T10:06:03.462Z,46.07
2022-12-04T10:08:40.419Z,33.87
2022-12-04T10:11:32.026Z,34.97
2022-12-04T10:14:35.199Z,35.17
2022-12-04T10:17:52.829Z,34.70
2022-12-04T10:20:28.947Z,36.37
2022-12-04T10:23:19.448Z,33.27
2022-12-04T10:25:49.319Z,32.67
2022-12-04T10:28:41.330Z,34.10
2022-12-04T10:31:13.757Z,37.17
2022-12-04T10:33:58.729Z,35.43
2022-12-04T10:36:30.941Z,34.80
2022-12-04T10:39:15.391Z,34.33
2022-12-04T10:41:59.999Z,34.83
2022-12-04T10:44:27.555Z,33.33
2022-12-04T10:46:59.610Z,33.37
2022-12-04T10:49:35.579Z,38.77
2022-12-04T10:52:02.674Z,34.87
2022-12-04T10:54:43.404Z,34.47
2022-12-04T10:57:13.896Z,34.03
2022-12-04T10:59:53.434Z,36.00
2022-12-04T11:02:27.432Z,37.37
2022-12-04T11:05:00.889Z,36.13
2022-12-04T11:07:30.924Z,36.13
2022-12-04T11:10:03.320Z,36.77
2022-12-04T11:12:32.252Z,37.03
2022-12-04T11:15:04.137Z,36.37
2022-12-04T11:17:31.040Z,40.70
2022-12-04T11:20:04.768Z,41.40
2022-12-04T11:22:32.316Z,38.90
2022-12-04T11:25:00.116Z,40.63
2022-12-04T11:27:33.469Z,42.53
2022-12-04T11:30:13.384Z,43.60
2022-12-04T11:32:42.188Z,43.37
2022-12-04T11:35:23.518Z,42.40
2022-12-04T11:38:14.120Z,46.20
2022-12-04T11:40:53.728Z,49.93
2022-12-04T11:43:21.761Z,46.90
2022-12-04T11:46:03.549Z,46.67
2022-12-04T11:48:31.900Z,44.13
2022-12-04T11:51:14.205Z,51.70
2022-12-04T11:54:08.212Z,44.30
2022-12-04T11:56:41.041Z,45.27
2022-12-04T11:59:28.189Z,55.60
2022-12-04T12:02:16.314Z,51.13
2022-12-04T12:05:18.745Z,48.77
2022-12-04T12:08:03.985Z,44.20
2022-12-04T12:10:45.486Z,52.73
2022-12-04T12:13:34.042Z,44.37
2022-12-04T12:16:08.888Z,47.73
2022-12-04T12:18:56.977Z,53.60
2022-12-04T12:21:33.893Z,48.37
2022-12-04T12:24:22.862Z,50.30
2022-12-04T12:27:13.671Z,53.07
2022-12-04T12:29:56.102Z,53.30
2022-12-04T12:32:40.707Z,52.33
2022-12-04T12:35:54.407Z,54.13
2022-12-04T12:38:28.784Z,43.30
2022-12-04T12:41:02.016Z,44.27
2022-12-04T12:43:39.731Z,56.50
2022-12-04T12:46:14.868Z,73.67
2022-12-04T12:49:01.415Z,72.03
2022-12-04T12:51:45.132Z,60.03
2022-12-04T12:54:49.008Z,53.27
2022-12-04T12:57:29.465Z,50.67
2022-12-04T13:00:04.314Z,46.80
2022-12-04T13:02:58.485Z,49.00
2022-12-04T13:05:31.044Z,46.40
2022-12-04T13:07:58.249Z,48.47
2022-12-04T13:10:35.275Z,48.80
2022-12-04T13:13:07.771Z,51.47
2022-12-04T13:15:44.771Z,50.17
2022-12-04T13:18:28.278Z,48.93
2022-12-04T13:21:03.775Z,47.87
2022-12-04T13:24:08.464Z,47.50
2022-12-04T13:26:56.791Z,44.33
2022-12-04T13:29:33.289Z,45.77
2022-12-04T13:32:10.870Z,45.97
2022-12-04T13:34:40.910Z,46.60
2022-12-04T13:37:14.821Z,49.40
2022-12-04T13:39:44.719Z,52.37
2022-12-04T13:42:24.785Z,51.33
2022-12-04T13:44:57.321Z,51.77
2022-12-04T13:47:31.948Z,49.87
2022-12-04T13:50:20.805Z,48.90
2022-12-04T13:52:49.403Z,50.83
2022-12-04T13:55:38.053Z,51.67
2022-12-04T13:58:11.034Z,52.83
2022-12-04T14:00:43.841Z,49.50
2022-12-04T14:03:34.435Z,51.27
2022-12-04T14:06:08.043Z,49.27
2022-12-04T14:08:39.589Z,51.73
2022-12-04T14:11:14.222Z,54.47
2022-12-04T14:13:50.958Z,56.43
2022-12-04T14:16:20.154Z,50.77
2022-12-04T14:18:57.030Z,48.27
2022-12-04T14:21:24.755Z,49.00
2022-12-04T14:23:53.260Z,47.17
2022-12-04T14:27:03.197Z,46.43
2022-12-04T14:29:42.213Z,51.10
2022-12-04T14:32:16.124Z,48.40
2022-12-04T14:34:43.356Z,48.97
2022-12-04T14:37:21.297Z,53.03
2022-12-04T14:39:49.538Z,54.63
2022-12-04T14:42:23.423Z,54.53
2022-12-04T14:44:59.878Z,50.33
2022-12-04T14:47:50.677Z,55.97
2022-12-04T14:50:39.244Z,49.53
2022-12-04T14:53:28.895Z,49.40
2022-12-04T14:56:02.178Z,50.60
2022-12-04T14:58:36.629Z,47.57
2022-12-04T15:01:18.417Z,51.60
2022-12-04T15:03:48.926Z,52.00
2022-12-04T15:06:24.468Z,45.83
2022-12-04T15:09:16.362Z,48.97
2022-12-04T15:12:09.730Z,49.23
2022-12-04T15:14:59.352Z,48.37
2022-12-04T15:17:26.422Z,48.10
2022-12-04T15:19:53.615Z,47.40
2022-12-04T15:22:26.334Z,47.53
2022-12-04T15:24:55.103Z,48.10
2022-12-04T15:27:30.580Z,46.63
2022-12-04T15:30:02.278Z,52.60
2022-12-04T15:32:31.912Z,50.67
2022-12-04T15:35:03.074Z,48.77
2022-12-04T15:37:31.528Z,44.83
2022-12-04T15:40:00.071Z,48.53
2022-12-04T15:42:29.552Z,47.57
2022-12-04T15:45:03.608Z,48.30
2022-12-04T15:47:38.018Z,49.97
2022-12-04T15:50:11.399Z,49.90
2022-12-04T15:52:38.590Z,52.93
2022-12-04T15:55:08.228Z,46.87
2022-12-04T15:57:40.999Z,48.73
2022-12-04T16:00:22.736Z,46.30
2022-12-04T16:02:50.715Z,46.27
2022-12-04T16:05:21.007Z,46.67
2022-12-04T16:07:53.815Z,47.07
2022-12-04T16:10:23.669Z,51.33
2022-12-04T16:12:55.443Z,51.03
2022-12-04T16:15:24.639Z,55.33
2022-12-04T16:17:52.654Z,52.07
2022-12-04T16:20:20.699Z,54.23
2022-12-04T16:22:53.108Z,52.97
2022-12-04T16:25:20.323Z,56.13
2022-12-04T16:27:47.341Z,48.87
2022-12-04T16:30:14.753Z,51.70
2022-12-04T16:32:41.667Z,48.53
2022-12-04T16:35:15.643Z,45.27
2022-12-04T16:37:43.057Z,43.83
2022-12-04T16:40:14.665Z,46.07
2022-12-04T16:42:42.499Z,45.57
2022-12-04T16:45:18.731Z,45.43
2022-12-04T16:47:47.832Z,46.67
2022-12-04T16:50:15.278Z,48.13
2022-12-04T16:52:42.211Z,49.57
2022-12-04T16:55:31.286Z,49.07
2022-12-04T16:57:58.185Z,48.57
2022-12-04T17:00:25.518Z,48.30
2022-12-04T17:02:52.956Z,50.20
2022-12-04T17:05:23.333Z,47.80
2022-12-04T17:07:50.471Z,47.77
2022-12-04T17:10:23.589Z,53.47
2022-12-04T17:12:55.278Z,53.03
2022-12-04T17:15:22.615Z,53.60
2022-12-04T17:17:50.372Z,47.37
2022-12-04T17:20:20.273Z,43.77
2022-12-04T17:22:47.912Z,47.20
2022-12-04T17:25:16.663Z,44.10
2022-12-04T17:27:44.324Z,42.13
2022-12-04T17:30:12.544Z,43.93
2022-12-04T17:32:39.479Z,45.87
2022-12-04T17:35:08.015Z,49.10
2022-12-04T17:37:35.977Z,45.63
2022-12-04T17:40:04.153Z,46.70
2022-12-04T17:42:32.296Z,53.27
2022-12-04T17:44:59.961Z,46.07
2022-12-04T17:47:26.886Z,45.57
2022-12-04T17:49:54.041Z,48.20
2022-12-04T17:52:22.542Z,47.90
2022-12-04T17:54:50.526Z,47.47
2022-12-04T17:57:18.458Z,50.40
2022-12-04T17:59:45.772Z,48.63
2022-12-04T18:02:13.331Z,50.20
2022-12-04T18:04:41.540Z,51.03
2022-12-04T18:07:08.795Z,52.50
2022-12-04T18:09:36.549Z,52.03
2022-12-04T18:12:03.756Z,52.70
2022-12-04T18:14:32.291Z,49.90
2022-12-04T18:16:59.357Z,51.10
2022-12-04T18:19:29.105Z,54.80
2022-12-04T18:21:56.919Z,49.03
2022-12-04T18:24:25.213Z,50.00
2022-12-04T18:26:52.862Z,54.40
2022-12-04T18:29:22.998Z,50.73
2022-12-04T18:31:51.178Z,49.77
2022-12-04T18:34:19.471Z,51.57
2022-12-04T18:36:47.015Z,49.30
2022-12-04T18:39:18.467Z,46.60
2022-12-04T18:41:46.215Z,51.50
2022-12-04T18:44:14.007Z,48.23
2022-12-04T18:46:42.073Z,49.60
2022-12-04T18:49:10.508Z,48.47
2022-12-04T18:51:49.288Z,53.60
2022-12-04T18:54:21.232Z,52.77
2022-12-04T18:56:48.228Z,52.40
2022-12-04T18:59:20.659Z,54.60
2022-12-04T19:01:50.239Z,51.17
2022-12-04T19:04:19.579Z,50.93
2022-12-04T19:06:52.387Z,51.20
2022-12-04T19:09:40.846Z,49.00
2022-12-04T19:12:08.634Z,52.27
2022-12-04T19:14:35.933Z,53.30
2022-12-04T19:17:02.870Z,48.93
2022-12-04T19:19:31.875Z,48.57
2022-12-04T19:21:59.213Z,48.33
2022-12-04T19:24:26.448Z,48.87
2022-12-04T19:26:54.376Z,47.63
2022-12-04T19:29:21.587Z,47.70
2022-12-04T19:31:48.643Z,47.90
2022-12-04T19:34:16.297Z,49.27
2022-12-04T19:36:45.380Z,48.40
2022-12-04T19:39:12.739Z,48.53
2022-12-04T19:41:41.367Z,51.80
2022-12-04T19:44:40.154Z,50.87
2022-12-04T19:46:56.692Z,46.67
2022-12-04T19:49:23.904Z,46.47
2022-12-04T19:51:50.775Z,45.67
2022-12-04T19:54:18.496Z,47.10
2022-12-04T19:56:51.019Z,49.33
2022-12-04T19:59:20.347Z,48.73
2022-12-04T20:01:47.559Z,45.60
2022-12-04T20:04:15.048Z,44.87
2022-12-04T20:06:46.499Z,44.37
2022-12-04T20:09:19.215Z,45.47
2022-12-04T20:11:46.279Z,45.40
2022-12-04T20:14:14.169Z,48.80
2022-12-04T20:16:42.106Z,42.37
2022-12-04T20:19:15.050Z,40.83
2022-12-04T20:21:42.988Z,44.87
2022-12-04T20:24:12.802Z,41.43
2022-12-04T20:26:41.688Z,39.20
2022-12-04T20:29:13.201Z,41.50
2022-12-04T20:31:42.709Z,41.90
2022-12-04T20:34:18.087Z,42.03
2022-12-04T20:36:47.186Z,39.93
2022-12-04T20:39:15.593Z,41.23
2022-12-04T20:41:42.669Z,40.93
2022-12-04T20:44:13.807Z,40.37
2022-12-04T20:46:42.660Z,40.47
2022-12-04T20:49:21.247Z,39.67
2022-12-04T20:51:49.834Z,39.37
2022-12-04T20:54:19.171Z,39.43
2022-12-04T20:56:49.016Z,42.17
2022-12-04T20:59:18.344Z,38.37
2022-12-04T21:01:45.671Z,39.83
2022-12-04T21:04:13.404Z,42.47
2022-12-04T21:06:41.829Z,40.63
2022-12-04T21:09:21.582Z,40.10
2022-12-04T21:11:54.291Z,40.70
2022-12-04T21:14:50.855Z,40.27
2022-12-04T21:17:19.496Z,39.87
2022-12-04T21:19:49.937Z,39.50
2022-12-04T21:22:18.541Z,41.80
2022-12-04T21:24:46.022Z,39.87
2022-12-04T21:27:18.927Z,39.50
2022-12-04T21:29:48.363Z,37.67
2022-12-04T21:32:19.091Z,36.93
2022-12-04T21:34:46.263Z,37.63
2022-12-04T21:37:13.330Z,38.90
2022-12-04T21:39:41.922Z,36.53
2022-12-04T21:42:27.643Z,37.63
2022-12-04T21:44:54.945Z,36.47
2022-12-04T21:47:21.964Z,38.73
2022-12-04T21:49:49.267Z,38.70
2022-12-04T21:52:17.460Z,37.13
2022-12-04T21:54:44.897Z,37.97
2022-12-04T21:57:11.833Z,39.37
2022-12-04T21:59:39.066Z,37.83
2022-12-04T22:02:06.159Z,38.73
2022-12-04T22:04:33.609Z,39.83
2022-12-04T22:07:00.477Z,43.57
2022-12-04T22:09:27.783Z,42.87
2022-12-04T22:11:54.669Z,41.07
2022-12-04T22:14:21.965Z,43.57
2022-12-04T22:16:53.045Z,38.80
2022-12-04T22:19:20.908Z,38.70
2022-12-04T22:21:48.155Z,40.97
2022-12-04T22:24:15.423Z,41.33
2022-12-04T22:26:42.403Z,37.97
2022-12-04T22:29:34.299Z,42.70
2022-12-04T22:31:56.469Z,39.00
2022-12-04T22:34:23.713Z,42.03
2022-12-04T22:36:50.910Z,40.73
2022-12-04T22:39:18.047Z,40.90
2022-12-04T22:41:45.137Z,39.87
2022-12-04T22:44:12.413Z,40.63
2022-12-04T22:46:39.284Z,44.07
2022-12-04T22:49:06.536Z,44.10
2022-12-04T22:51:33.422Z,43.00
2022-12-04T22:54:00.667Z,41.00
2022-12-04T22:56:30.698Z,41.13
2022-12-04T22:58:59.436Z,42.70
2022-12-04T23:01:32.080Z,42.50
2022-12-04T23:04:00.176Z,41.07
2022-12-04T23:06:29.952Z,43.33
2022-12-04T23:08:59.851Z,41.33
2022-12-04T23:11:27.931Z,44.07
2022-12-04T23:14:00.069Z,40.83
2022-12-04T23:16:28.608Z,41.93
2022-12-04T23:18:56.168Z,42.10
2022-12-04T23:21:24.046Z,43.90
2022-12-04T23:23:53.049Z,42.90
2022-12-04T23:26:22.675Z,42.47
2022-12-04T23:28:49.999Z,42.10
2022-12-04T23:31:17.148Z,40.73
2022-12-04T23:33:44.539Z,41.03
2022-12-04T23:36:12.631Z,40.97
2022-12-04T23:38:41.647Z,38.07
2022-12-04T23:41:14.000Z,39.67
2022-12-04T23:43:41.499Z,40.17
2022-12-04T23:46:11.487Z,38.43
2022-12-04T23:48:40.361Z,38.30
2022-12-04T23:51:08.756Z,39.50
2022-12-04T23:53:36.642Z,38.27
2022-12-04T23:56:08.046Z,38.30
2022-12-04T23:58:36.157Z,38.90
